Time;durP1;ratioP1;P1;durP2;ratioP2;P2;SDS_P1;SDS_P2;PMS_P1;PMS_P2;Temp;Humidity;BMP_temperature;BMP_pressure;BME280_temperature;BME280_humidity;BME280_pressure;Samples;Min_cycle;Max_cycle;Signal;HPM_P1;HPM_P2
2023/03/30 00:00:16;;;;;;;13.13;2.30;;;;;;;;;;5064463;28;20098;-61
2023/03/30 00:03:03;;;;;;;10.52;2.10;;;;;;;;;;5055786;28;20532;-63
2023/03/30 00:05:29;;;;;;;10.52;2.20;;;;;;;;;;5061775;28;20067;-63
2023/03/30 00:07:56;;;;;;;12.88;2.78;;;;;;;;;;5064674;28;20048;-61
2023/03/30 00:10:22;;;;;;;10.32;2.35;;;;;;;;;;5065070;28;20127;-65
2023/03/30 00:12:49;;;;;;;12.98;2.33;;;;;;;;;;5064150;28;20043;-62
2023/03/30 00:15:17;;;;;;;12.77;2.60;;;;;;;;;;5058866;28;20052;-61
2023/03/30 00:17:44;;;;;;;10.05;2.40;;;;;;;;;;5059940;28;20052;-62
2023/03/30 00:20:12;;;;;;;9.63;2.35;;;;;;;;;;5061055;28;20500;-62
2023/03/30 00:22:44;;;;;;;10.52;2.28;;;;;;;;;;5078460;28;20051;-62
2023/03/30 00:25:12;;;;;;;13.32;2.22;;;;;;;;;;5061745;28;20488;-62
2023/03/30 00:27:39;;;;;;;9.65;2.00;;;;;;;;;;5060017;28;20056;-64
2023/03/30 00:30:10;;;;;;;15.68;3.60;;;;;;;;;;5068503;28;20048;-65
2023/03/30 00:32:36;;;;;;;20.17;3.90;;;;;;;;;;5058946;28;20166;-64
2023/03/30 00:35:04;;;;;;;13.90;4.47;;;;;;;;;;5058308;28;20127;-62
2023/03/30 00:37:31;;;;;;;20.52;4.75;;;;;;;;;;5055715;28;20470;-62
2023/03/30 00:39:57;;;;;;;16.45;4.50;;;;;;;;;;5057778;28;20032;-67
2023/03/30 00:42:23;;;;;;;15.73;4.85;;;;;;;;;;5058158;28;20059;-61
2023/03/30 00:45:16;;;;;;;16.95;5.60;;;;;;;;;;5057853;28;20495;-63
2023/03/30 00:47:47;;;;;;;21.45;5.22;;;;;;;;;;5059206;28;20142;-61
2023/03/30 00:50:15;;;;;;;20.40;6.03;;;;;;;;;;5077062;28;20157;-60
2023/03/30 00:52:43;;;;;;;22.27;5.25;;;;;;;;;;5059555;28;20263;-61
2023/03/30 00:55:10;;;;;;;14.38;5.07;;;;;;;;;;5059911;28;20448;-61
2023/03/30 00:57:39;;;;;;;16.48;4.97;;;;;;;;;;5059304;28;20040;-64
2023/03/30 01:00:07;;;;;;;17.95;5.22;;;;;;;;;;5068782;28;20064;-62
2023/03/30 01:02:40;;;;;;;14.75;5.03;;;;;;;;;;5058743;28;20036;-62
2023/03/30 01:05:07;;;;;;;18.35;4.97;;;;;;;;;;5066257;28;20484;-63
2023/03/30 01:07:37;;;;;;;14.82;4.80;;;;;;;;;;5068794;28;20052;-62
2023/03/30 01:10:03;;;;;;;19.13;5.70;;;;;;;;;;5064283;28;20047;-61
2023/03/30 01:12:29;;;;;;;18.17;4.60;;;;;;;;;;5065683;28;20499;-62
2023/03/30 01:14:56;;;;;;;19.70;5.57;;;;;;;;;;5062425;28;20428;-61
2023/03/30 01:17:32;;;;;;;17.83;5.18;;;;;;;;;;5073932;28;20051;-63
2023/03/30 01:20:13;;;;;;;15.02;5.13;;;;;;;;;;5069511;28;20041;-62
2023/03/30 01:23:00;;;;;;;19.13;5.18;;;;;;;;;;5067035;28;20053;-61
2023/03/30 01:25:51;;;;;;;20.63;4.47;;;;;;;;;;5064774;28;20550;-63
2023/03/30 01:28:22;;;;;;;18.45;4.80;;;;;;;;;;5075767;28;20048;-62
2023/03/30 01:31:26;;;;;;;18.98;4.05;;;;;;;;;;5066662;28;20053;-61
2023/03/30 01:34:00;;;;;;;20.33;3.95;;;;;;;;;;5066697;28;20519;-61
2023/03/30 01:36:59;;;;;;;19.38;4.35;;;;;;;;;;5068646;28;20139;-61
2023/03/30 01:39:39;;;;;;;18.55;4.55;;;;;;;;;;5061089;28;20052;-60
2023/03/30 01:42:21;;;;;;;18.70;4.28;;;;;;;;;;5063861;28;20040;-63
2023/03/30 01:45:03;;;;;;;20.63;4.35;;;;;;;;;;5064119;28;20049;-61
2023/03/30 01:47:54;;;;;;;15.82;4.13;;;;;;;;;;5065250;28;20048;-61
2023/03/30 01:50:43;;;;;;;16.75;4.05;;;;;;;;;;5071395;28;20052;-61
2023/03/30 01:53:19;;;;;;;13.40;3.78;;;;;;;;;;5066250;28;20051;-61
2023/03/30 01:56:20;;;;;;;14.25;3.45;;;;;;;;;;5062835;28;20052;-62
2023/03/30 01:58:52;;;;;;;14.02;3.95;;;;;;;;;;5055303;28;20769;-61
2023/03/30 02:01:19;;;;;;;18.20;4.20;;;;;;;;;;5064075;28;20741;-60
2023/03/30 02:03:52;;;;;;;20.35;3.85;;;;;;;;;;5061307;28;20071;-61
2023/03/30 02:06:42;;;;;;;11.13;3.72;;;;;;;;;;5065315;28;20049;-61
2023/03/30 02:09:13;;;;;;;15.40;3.92;;;;;;;;;;5065755;28;20135;-61
2023/03/30 02:11:44;;;;;;;14.18;3.95;;;;;;;;;;5070488;28;20044;-61
2023/03/30 02:14:13;;;;;;;13.90;3.70;;;;;;;;;;5077188;28;20080;-61
2023/03/30 02:16:44;;;;;;;14.48;3.88;;;;;;;;;;5069121;28;20052;-60
2023/03/30 02:19:10;;;;;;;12.68;3.90;;;;;;;;;;5065354;28;20189;-60
2023/03/30 02:21:37;;;;;;;12.25;4.25;;;;;;;;;;5072028;28;20053;-62
2023/03/30 02:24:06;;;;;;;18.90;4.43;;;;;;;;;;5070349;28;20058;-62
2023/03/30 02:26:35;;;;;;;14.18;3.50;;;;;;;;;;5067988;28;20049;-62
2023/03/30 02:29:02;;;;;;;16.27;4.00;;;;;;;;;;5066305;28;20053;-60
2023/03/30 02:31:29;;;;;;;12.15;4.28;;;;;;;;;;5066936;28;20078;-61
2023/03/30 02:34:05;;;;;;;15.82;4.20;;;;;;;;;;5067053;28;20413;-63
2023/03/30 02:37:01;;;;;;;20.25;4.93;;;;;;;;;;5067290;28;20044;-64
2023/03/30 02:39:57;;;;;;;17.65;4.55;;;;;;;;;;5073529;28;20128;-60
2023/03/30 02:42:42;;;;;;;15.30;4.68;;;;;;;;;;5066904;28;20051;-61
2023/03/30 02:45:29;;;;;;;20.58;4.60;;;;;;;;;;5066541;28;20056;-62
2023/03/30 02:48:26;;;;;;;17.77;4.63;;;;;;;;;;5068378;28;20052;-61
2023/03/30 02:51:09;;;;;;;20.85;4.45;;;;;;;;;;5064031;28;20032;-60
2023/03/30 02:53:46;;;;;;;20.73;4.78;;;;;;;;;;5064973;28;20055;-63
2023/03/30 02:56:36;;;;;;;17.92;4.13;;;;;;;;;;5082106;28;20049;-61
2023/03/30 02:59:39;;;;;;;16.80;4.32;;;;;;;;;;5066457;28;20503;-65
2023/03/30 03:02:18;;;;;;;13.82;4.25;;;;;;;;;;5037205;28;20454;-61
2023/03/30 03:04:46;;;;;;;15.00;3.60;;;;;;;;;;5071827;28;20100;-62
2023/03/30 03:07:13;;;;;;;16.00;4.68;;;;;;;;;;5066753;28;20090;-61
2023/03/30 03:09:40;;;;;;;18.83;4.10;;;;;;;;;;5080404;28;20048;-61
2023/03/30 03:12:06;;;;;;;11.80;4.13;;;;;;;;;;5065523;28;20456;-60
2023/03/30 03:14:32;;;;;;;19.15;3.30;;;;;;;;;;5071019;28;20098;-63
2023/03/30 03:16:58;;;;;;;16.52;3.20;;;;;;;;;;5066435;28;20055;-61
2023/03/30 03:19:24;;;;;;;18.55;3.15;;;;;;;;;;5068113;28;20045;-64
2023/03/30 03:21:50;;;;;;;15.35;3.25;;;;;;;;;;5065672;28;20048;-62
2023/03/30 03:24:17;;;;;;;17.80;4.22;;;;;;;;;;5071071;28;20052;-61
2023/03/30 03:26:44;;;;;;;16.73;3.25;;;;;;;;;;5062857;28;20055;-62
2023/03/30 03:29:10;;;;;;;14.18;3.10;;;;;;;;;;5063729;28;20048;-61
2023/03/30 03:31:38;;;;;;;12.43;2.92;;;;;;;;;;5065148;28;20052;-62
2023/03/30 03:34:04;;;;;;;10.98;3.40;;;;;;;;;;5063028;28;20048;-61
2023/03/30 03:36:31;;;;;;;11.93;3.03;;;;;;;;;;5062903;28;20413;-62
2023/03/30 03:38:57;;;;;;;17.23;3.58;;;;;;;;;;5060290;28;20055;-62
2023/03/30 03:41:23;;;;;;;20.05;2.78;;;;;;;;;;5062674;28;20048;-62
2023/03/30 03:43:49;;;;;;;9.45;2.65;;;;;;;;;;5064823;28;20045;-61
2023/03/30 03:46:15;;;;;;;13.60;2.95;;;;;;;;;;5063033;28;20048;-62
2023/03/30 03:48:41;;;;;;;9.65;3.00;;;;;;;;;;5062064;28;20406;-60
2023/03/30 03:51:08;;;;;;;11.50;3.05;;;;;;;;;;5065120;28;20045;-64
2023/03/30 03:53:35;;;;;;;15.25;3.00;;;;;;;;;;5067965;28;20048;-60
2023/03/30 03:56:01;;;;;;;14.13;3.40;;;;;;;;;;5062024;28;20071;-62
2023/03/30 03:58:27;;;;;;;11.63;3.00;;;;;;;;;;5062211;28;20071;-61
2023/03/30 04:01:01;;;;;;;10.05;3.28;;;;;;;;;;5060130;28;20151;-62
2023/03/30 04:03:27;;;;;;;16.90;3.00;;;;;;;;;;5063925;28;20127;-61
2023/03/30 04:05:53;;;;;;;10.57;3.20;;;;;;;;;;5065263;28;20052;-62
2023/03/30 04:08:20;;;;;;;14.30;3.88;;;;;;;;;;5056282;28;20082;-62
2023/03/30 04:10:46;;;;;;;13.02;3.03;;;;;;;;;;5061473;28;20063;-60
2023/03/30 04:13:15;;;;;;;12.32;3.42;;;;;;;;;;5062038;28;20122;-62
2023/03/30 04:15:40;;;;;;;9.48;2.90;;;;;;;;;;5068303;28;20492;-61
2023/03/30 04:18:07;;;;;;;13.85;3.25;;;;;;;;;;5062721;28;20420;-62
2023/03/30 04:20:33;;;;;;;13.25;3.08;;;;;;;;;;5059395;28;20230;-61
2023/03/30 04:23:00;;;;;;;14.10;3.05;;;;;;;;;;5066835;28;20053;-64
2023/03/30 04:25:27;;;;;;;17.85;3.70;;;;;;;;;;5068024;28;20101;-61
2023/03/30 04:27:54;;;;;;;12.10;3.38;;;;;;;;;;5060098;28;20057;-63
2023/03/30 04:30:21;;;;;;;16.90;3.60;;;;;;;;;;5060540;28;20067;-62
2023/03/30 04:33:01;;;;;;;10.13;3.15;;;;;;;;;;5056384;28;20090;-61
2023/03/30 04:35:38;;;;;;;13.77;3.00;;;;;;;;;;5061836;28;20055;-61
2023/03/30 04:38:05;;;;;;;15.15;3.45;;;;;;;;;;5059688;28;20176;-62
2023/03/30 04:40:31;;;;;;;13.73;3.00;;;;;;;;;;5062168;28;20056;-61
2023/03/30 04:43:02;;;;;;;11.25;3.17;;;;;;;;;;5059296;28;20102;-60
2023/03/30 04:45:29;;;;;;;12.00;3.10;;;;;;;;;;5065305;28;20117;-62
2023/03/30 04:47:57;;;;;;;17.35;3.50;;;;;;;;;;5059120;28;20048;-64
2023/03/30 04:50:23;;;;;;;15.38;4.32;;;;;;;;;;5058954;28;20055;-62
2023/03/30 04:52:49;;;;;;;16.13;4.13;;;;;;;;;;5061339;28;20056;-66
2023/03/30 04:55:55;;;;;;;9.77;3.78;;;;;;;;;;5066353;28;20055;-63
2023/03/30 04:59:36;;;;;;;14.57;4.82;;;;;;;;;;5064676;28;20044;-61
2023/03/30 05:03:16;;;;;;;15.52;4.35;;;;;;;;;;5063652;28;20037;-66
2023/03/30 05:06:56;;;;;;;17.52;5.22;;;;;;;;;;5065513;28;20499;-62
2023/03/30 05:10:38;;;;;;;16.20;4.75;;;;;;;;;;5066188;28;20051;-63
2023/03/30 05:14:18;;;;;;;16.58;4.38;;;;;;;;;;5056983;28;20045;-61
2023/03/30 05:17:59;;;;;;;16.30;5.28;;;;;;;;;;5055944;28;20094;-63
2023/03/30 05:21:39;;;;;;;18.23;4.60;;;;;;;;;;5060974;28;20102;-62
2023/03/30 05:25:19;;;;;;;19.83;5.50;;;;;;;;;;5070492;28;20432;-62
2023/03/30 05:29:01;;;;;;;15.38;5.13;;;;;;;;;;5062931;28;20427;-63
2023/03/30 05:32:42;;;;;;;12.90;4.57;;;;;;;;;;5068422;28;20129;-68
2023/03/30 05:36:22;;;;;;;17.92;5.15;;;;;;;;;;5062186;28;20032;-63
2023/03/30 05:40:07;;;;;;;13.45;4.72;;;;;;;;;;5062036;28;20110;-63
2023/03/30 05:43:44;;;;;;;17.70;4.78;;;;;;;;;;5069911;28;20033;-64
2023/03/30 05:47:27;;;;;;;15.13;4.72;;;;;;;;;;5064175;28;20464;-63
2023/03/30 05:51:06;;;;;;;10.38;4.60;;;;;;;;;;5067068;28;20071;-64
2023/03/30 05:54:46;;;;;;;14.00;4.75;;;;;;;;;;5065506;28;20040;-66
2023/03/30 05:58:27;;;;;;;15.63;5.60;;;;;;;;;;5061835;28;20176;-66
2023/03/30 06:02:07;;;;;;;17.73;4.97;;;;;;;;;;5060907;28;20381;-63
2023/03/30 06:05:08;;;;;;;15.07;5.22;;;;;;;;;;5063225;28;20144;-65
2023/03/30 06:08:15;;;;;;;19.52;5.40;;;;;;;;;;5061629;28;20055;-64
2023/03/30 06:11:57;;;;;;;19.10;4.95;;;;;;;;;;5061469;28;20055;-63
2023/03/30 06:15:36;;;;;;;11.10;4.32;;;;;;;;;;5064075;28;20080;-63
2023/03/30 06:19:16;;;;;;;20.30;4.93;;;;;;;;;;5064106;28;20048;-63
2023/03/30 06:22:58;;;;;;;20.05;4.78;;;;;;;;;;5067966;28;20063;-62
2023/03/30 06:26:40;;;;;;;20.42;4.65;;;;;;;;;;5056659;28;20465;-63
2023/03/30 06:30:21;;;;;;;12.40;4.72;;;;;;;;;;5064677;28;20656;-62
2023/03/30 06:34:01;;;;;;;14.25;5.05;;;;;;;;;;5060051;28;20049;-66
2023/03/30 06:37:43;;;;;;;18.73;4.82;;;;;;;;;;5061349;28;20075;-61
2023/03/30 06:41:23;;;;;;;28.45;5.28;;;;;;;;;;5065072;28;20059;-62
2023/03/30 06:45:05;;;;;;;36.03;5.65;;;;;;;;;;5058320;28;20122;-61
2023/03/30 06:48:45;;;;;;;30.10;5.60;;;;;;;;;;5056892;28;20052;-64
2023/03/30 06:52:25;;;;;;;24.38;5.43;;;;;;;;;;5066323;28;20044;-63
2023/03/30 06:56:12;;;;;;;25.90;6.13;;;;;;;;;;5063877;28;20048;-64
2023/03/30 06:59:52;;;;;;;19.98;5.18;;;;;;;;;;5049385;28;20205;-61
2023/03/30 07:02:54;;;;;;;20.95;4.75;;;;;;;;;;5066541;28;20052;-63
2023/03/30 07:05:24;;;;;;;20.33;5.93;;;;;;;;;;5066549;28;20029;-66
2023/03/30 07:07:53;;;;;;;28.75;5.38;;;;;;;;;;5062062;28;20052;-62
2023/03/30 07:10:21;;;;;;;20.13;5.38;;;;;;;;;;5061692;28;20056;-64
2023/03/30 07:12:46;;;;;;;29.30;5.85;;;;;;;;;;5084265;28;20419;-63
2023/03/30 07:15:55;;;;;;;25.20;6.70;;;;;;;;;;5066656;28;20045;-65
2023/03/30 07:19:35;;;;;;;27.15;6.63;;;;;;;;;;5065281;28;20044;-64
2023/03/30 07:23:16;;;;;;;26.98;7.07;;;;;;;;;;5064717;28;20041;-62
2023/03/30 07:26:56;;;;;;;22.10;6.80;;;;;;;;;;5059448;28;20049;-62
2023/03/30 07:30:38;;;;;;;31.17;7.65;;;;;;;;;;5062733;28;20137;-70
2023/03/30 07:34:18;;;;;;;29.23;6.78;;;;;;;;;;5054352;28;20120;-64
2023/03/30 07:38:00;;;;;;;22.33;6.90;;;;;;;;;;5059857;28;20243;-64
2023/03/30 07:41:40;;;;;;;23.52;6.55;;;;;;;;;;5061162;28;20056;-63
2023/03/30 07:45:20;;;;;;;27.42;7.75;;;;;;;;;;5064591;28;20094;-64
2023/03/30 07:49:02;;;;;;;24.08;6.18;;;;;;;;;;5055986;28;20052;-64
2023/03/30 07:52:43;;;;;;;26.55;7.40;;;;;;;;;;5055593;28;20053;-63
2023/03/30 07:56:26;;;;;;;29.17;8.10;;;;;;;;;;5061646;28;20055;-63
2023/03/30 08:00:08;;;;;;;23.55;6.30;;;;;;;;;;5064355;28;20128;-64
2023/03/30 08:03:47;;;;;;;23.67;7.35;;;;;;;;;;5064778;28;20044;-65
2023/03/30 08:07:29;;;;;;;28.27;7.47;;;;;;;;;;5060638;28;20123;-62
2023/03/30 08:11:11;;;;;;;18.88;6.65;;;;;;;;;;5064927;28;20503;-63
2023/03/30 08:14:49;;;;;;;37.55;8.18;;;;;;;;;;5060452;28;20052;-65
2023/03/30 08:18:30;;;;;;;27.83;6.57;;;;;;;;;;5059129;28;20044;-59
2023/03/30 08:22:10;;;;;;;21.10;6.65;;;;;;;;;;5064135;28;20064;-62
2023/03/30 08:25:51;;;;;;;20.25;6.45;;;;;;;;;;5057405;28;20647;-63
2023/03/30 08:29:32;;;;;;;27.70;6.95;;;;;;;;;;5062337;28;20105;-62
2023/03/30 08:33:12;;;;;;;22.65;7.25;;;;;;;;;;5061361;28;20040;-62
2023/03/30 08:36:51;;;;;;;34.65;8.32;;;;;;;;;;5057579;28;20044;-60
2023/03/30 08:40:31;;;;;;;29.13;7.78;;;;;;;;;;5061480;28;20049;-69
2023/03/30 08:43:29;;;;;;;24.13;7.50;;;;;;;;;;5059183;28;20052;-61
2023/03/30 08:47:09;;;;;;;26.05;7.22;;;;;;;;;;5055377;28;20404;-62
2023/03/30 08:50:35;;;;;;;25.70;8.13;;;;;;;;;;5061197;28;20036;-60
2023/03/30 08:54:16;;;;;;;31.60;8.00;;;;;;;;;;5057877;28;20044;-63
2023/03/30 08:57:41;;;;;;;22.25;7.47;;;;;;;;;;5060684;28;20483;-64
2023/03/30 09:01:30;;;;;;;34.53;7.17;;;;;;;;;;5059870;28;20053;-64
2023/03/30 09:04:55;;;;;;;26.80;6.60;;;;;;;;;;5058811;28;20048;-67
2023/03/30 09:08:10;;;;;;;23.42;5.85;;;;;;;;;;5062862;28;20057;-62
2023/03/30 09:11:50;;;;;;;20.75;5.13;;;;;;;;;;5063877;28;20052;-64
2023/03/30 09:15:20;;;;;;;14.18;4.25;;;;;;;;;;5061380;28;20726;-63
2023/03/30 09:19:00;;;;;;;14.82;3.63;;;;;;;;;;5056469;28;20039;-63
2023/03/30 09:22:40;;;;;;;12.38;3.20;;;;;;;;;;5055386;28;20049;-64
2023/03/30 09:25:53;;;;;;;11.32;2.90;;;;;;;;;;5065480;28;20045;-62
2023/03/30 09:28:57;;;;;;;8.80;2.97;;;;;;;;;;5062928;28;20075;-62
2023/03/30 09:32:52;;;;;;;8.57;2.37;;;;;;;;;;5060726;28;20182;-63
2023/03/30 09:36:26;;;;;;;8.43;2.22;;;;;;;;;;5058410;28;20446;-63
2023/03/30 09:40:08;;;;;;;10.63;1.90;;;;;;;;;;5059966;28;20045;-62
2023/03/30 09:43:33;;;;;;;11.02;2.00;;;;;;;;;;5059728;28;20052;-63
2023/03/30 09:47:13;;;;;;;7.93;2.05;;;;;;;;;;5067198;28;20045;-63
2023/03/30 09:50:56;;;;;;;12.88;2.33;;;;;;;;;;5065641;28;20052;-62
2023/03/30 09:54:40;;;;;;;10.05;2.05;;;;;;;;;;5064869;28;20125;-60
2023/03/30 09:58:36;;;;;;;12.00;2.17;;;;;;;;;;5060484;28;20052;-64
2023/03/30 10:02:30;;;;;;;9.13;2.22;;;;;;;;;;5065293;28;20141;-63
2023/03/30 10:06:03;;;;;;;11.38;2.28;;;;;;;;;;5044183;28;20055;-66
2023/03/30 10:09:41;;;;;;;13.30;2.10;;;;;;;;;;5061002;28;20097;-64
2023/03/30 10:13:33;;;;;;;8.80;2.00;;;;;;;;;;5064028;28;20314;-62
2023/03/30 10:17:14;;;;;;;13.05;2.47;;;;;;;;;;5055146;28;20110;-62
2023/03/30 10:21:06;;;;;;;10.90;2.20;;;;;;;;;;5071908;28;20067;-64
2023/03/30 10:24:13;;;;;;;10.75;2.20;;;;;;;;;;5058005;28;20511;-63
2023/03/30 10:27:54;;;;;;;10.88;2.50;;;;;;;;;;5071839;28;20337;-63
2023/03/30 10:31:34;;;;;;;23.48;2.65;;;;;;;;;;5068690;28;20299;-63
2023/03/30 10:35:14;;;;;;;12.80;2.22;;;;;;;;;;5063409;28;20053;-66
2023/03/30 10:38:54;;;;;;;9.40;2.10;;;;;;;;;;5064015;28;20411;-64
2023/03/30 10:42:36;;;;;;;13.55;2.20;;;;;;;;;;5058047;28;20136;-64
2023/03/30 10:46:17;;;;;;;11.68;2.30;;;;;;;;;;5063626;28;20133;-64
2023/03/30 10:49:27;;;;;;;13.48;2.50;;;;;;;;;;5057889;28;20044;-62
2023/03/30 10:53:25;;;;;;;14.77;2.67;;;;;;;;;;5064717;28;20047;-64
2023/03/30 10:57:18;;;;;;;11.85;2.15;;;;;;;;;;5020609;28;20059;-63
2023/03/30 11:00:42;;;;;;;14.07;2.78;;;;;;;;;;5022951;28;20186;-66
2023/03/30 11:04:21;;;;;;;13.25;3.00;;;;;;;;;;5023987;28;20061;-63
2023/03/30 11:07:28;;;;;;;11.27;2.15;;;;;;;;;;5020897;28;20067;-63
2023/03/30 11:10:51;;;;;;;15.50;2.45;;;;;;;;;;5021710;28;20061;-64
2023/03/30 11:14:32;;;;;;;17.58;2.38;;;;;;;;;;5024319;28;20040;-62
2023/03/30 11:17:58;;;;;;;14.88;2.60;;;;;;;;;;5023537;28;20049;-62
2023/03/30 11:21:34;;;;;;;17.25;2.92;;;;;;;;;;5022048;28;20056;-63
2023/03/30 11:25:15;;;;;;;14.05;2.50;;;;;;;;;;5015106;28;20254;-62
2023/03/30 11:28:25;;;;;;;19.70;2.55;;;;;;;;;;5023289;28;20582;-65
2023/03/30 11:31:34;;;;;;;18.75;2.70;;;;;;;;;;5063920;28;20520;-62
2023/03/30 11:34:47;;;;;;;13.35;2.40;;;;;;;;;;5052861;28;20064;-64
2023/03/30 11:38:30;;;;;;;12.13;1.83;;;;;;;;;;5062469;28;20416;-63
2023/03/30 11:42:35;;;;;;;10.48;1.85;;;;;;;;;;5063265;28;20138;-63
2023/03/30 11:46:33;;;;;;;16.30;2.15;;;;;;;;;;5074244;28;20101;-64
2023/03/30 11:49:49;;;;;;;18.15;1.88;;;;;;;;;;5064617;28;20141;-61
2023/03/30 11:52:58;;;;;;;16.40;2.38;;;;;;;;;;5063857;28;20523;-63
2023/03/30 11:56:11;;;;;;;11.32;2.25;;;;;;;;;;5055723;28;20365;-63
2023/03/30 12:00:08;;;;;;;16.52;1.88;;;;;;;;;;5063238;28;20044;-65
2023/03/30 12:03:28;;;;;;;16.73;2.10;;;;;;;;;;5062473;28;20484;-63
2023/03/30 12:06:51;;;;;;;;;;;;;;;;;;5059295;28;20105;-63
2023/03/30 12:10:33;;;;;;;18.95;3.10;;;;;;;;;;5058618;28;20206;-68
2023/03/30 12:14:13;;;;;;;22.55;2.40;;;;;;;;;;5061209;28;20155;-64
2023/03/30 12:17:29;;;;;;;17.35;2.20;;;;;;;;;;5052202;28;20457;-65
2023/03/30 12:20:52;;;;;;;11.10;2.20;;;;;;;;;;5063996;28;20056;-64
2023/03/30 12:24:14;;;;;;;16.57;2.00;;;;;;;;;;5056481;28;20044;-66
2023/03/30 12:27:57;;;;;;;7.78;2.13;;;;;;;;;;5054373;28;20432;-65
2023/03/30 12:31:38;;;;;;;14.20;2.70;;;;;;;;;;5056319;28;20048;-62
2023/03/30 12:35:18;;;;;;;16.17;2.40;;;;;;;;;;5057401;28;20090;-62
2023/03/30 12:39:04;;;;;;;6.85;2.03;;;;;;;;;;5059765;28;20052;-62
2023/03/30 12:42:45;;;;;;;16.13;2.50;;;;;;;;;;5058760;28;20075;-64
2023/03/30 12:46:30;;;;;;;13.73;2.20;;;;;;;;;;5062813;28;20123;-62
2023/03/30 12:49:37;;;;;;;11.30;2.22;;;;;;;;;;5058895;28;20052;-64
2023/03/30 12:53:01;;;;;;;10.43;1.75;;;;;;;;;;5064517;28;20357;-65
2023/03/30 12:57:03;;;;;;;15.07;2.20;;;;;;;;;;5064691;28;20036;-64
2023/03/30 13:00:25;;;;;;;15.10;2.25;;;;;;;;;;5063119;28;20324;-64
2023/03/30 13:03:48;;;;;;;16.48;2.42;;;;;;;;;;5061016;28;20060;-65
2023/03/30 13:07:09;;;;;;;16.77;1.98;;;;;;;;;;5063917;28;20049;-63
2023/03/30 13:10:28;;;;;;;17.95;2.33;;;;;;;;;;5063631;28;20147;-66
2023/03/30 13:13:51;;;;;;;19.42;2.50;;;;;;;;;;5058337;28;20051;-64
2023/03/30 13:16:52;;;;;;;14.57;2.13;;;;;;;;;;5069067;28;20048;-61
2023/03/30 13:20:31;;;;;;;6.63;2.13;;;;;;;;;;5062207;28;20038;-64
2023/03/30 13:24:17;;;;;;;15.25;2.00;;;;;;;;;;5061487;28;20143;-63
2023/03/30 13:27:18;;;;;;;13.15;2.20;;;;;;;;;;5067014;28;20389;-63
2023/03/30 13:30:58;;;;;;;9.45;2.08;;;;;;;;;;5060090;28;20044;-64
2023/03/30 13:34:24;;;;;;;11.45;2.17;;;;;;;;;;5062119;28;20248;-62
2023/03/30 13:37:52;;;;;;;11.88;2.10;;;;;;;;;;5067936;28;20048;-67
2023/03/30 13:41:15;;;;;;;19.83;2.90;;;;;;;;;;5063583;28;20139;-64
2023/03/30 13:44:27;;;;;;;10.35;2.15;;;;;;;;;;5067741;28;20467;-63
2023/03/30 13:48:13;;;;;;;31.67;2.33;;;;;;;;;;5065969;28;20044;-63
2023/03/30 13:51:53;;;;;;;12.80;2.55;;;;;;;;;;5065846;28;20059;-64
2023/03/30 13:55:33;;;;;;;28.90;2.72;;;;;;;;;;5064239;28;20051;-63
2023/03/30 13:59:18;;;;;;;25.92;2.55;;;;;;;;;;5060753;28;20053;-63
2023/03/30 14:02:59;;;;;;;17.15;2.25;;;;;;;;;;5062498;28;20113;-68
2023/03/30 14:06:42;;;;;;;10.90;2.42;;;;;;;;;;5057724;28;20120;-66
2023/03/30 14:10:01;;;;;;;10.30;2.10;;;;;;;;;;5060119;28;20063;-65
2023/03/30 14:13:42;;;;;;;17.15;2.08;;;;;;;;;;5058947;28;20135;-63
2023/03/30 14:17:23;;;;;;;15.93;2.15;;;;;;;;;;5058280;28;20206;-62
2023/03/30 14:20:41;;;;;;;18.48;2.42;;;;;;;;;;5055413;28;20670;-63
2023/03/30 14:24:22;;;;;;;23.10;2.20;;;;;;;;;;5059416;28;20094;-62
2023/03/30 14:27:22;;;;;;;20.25;2.30;;;;;;;;;;5059251;28;20045;-64
2023/03/30 14:30:17;;;;;;;15.57;2.33;;;;;;;;;;5063890;28;20863;-62
2023/03/30 14:33:26;;;;;;;22.77;2.20;;;;;;;;;;5054671;28;20493;-61
2023/03/30 14:37:07;;;;;;;19.15;4.03;;;;;;;;;;5062144;28;20045;-63
2023/03/30 14:40:48;;;;;;;15.95;2.67;;;;;;;;;;5059974;28;20036;-61
2023/03/30 14:44:34;;;;;;;11.98;2.15;;;;;;;;;;5066261;28;20081;-62
2023/03/30 14:48:15;;;;;;;13.30;2.20;;;;;;;;;;5058793;28;20427;-62
2023/03/30 14:52:02;;;;;;;18.50;2.30;;;;;;;;;;5059327;28;20098;-63
2023/03/30 14:55:42;;;;;;;12.73;2.53;;;;;;;;;;5059111;28;20144;-64
2023/03/30 14:59:22;;;;;;;5.90;2.00;;;;;;;;;;5055822;28;21530;-65
2023/03/30 15:02:29;;;;;;;11.45;2.50;;;;;;;;;;5065063;28;20032;-63
2023/03/30 15:05:35;;;;;;;14.43;2.10;;;;;;;;;;5058880;28;20095;-63
2023/03/30 15:09:18;;;;;;;12.50;2.38;;;;;;;;;;5054773;28;20071;-63
2023/03/30 15:12:59;;;;;;;14.55;2.15;;;;;;;;;;5051837;28;20437;-63
2023/03/30 15:16:41;;;;;;;11.02;2.28;;;;;;;;;;5064057;28;20048;-66
2023/03/30 15:20:22;;;;;;;15.05;2.75;;;;;;;;;;5060516;28;20048;-66
2023/03/30 15:24:02;;;;;;;18.85;2.58;;;;;;;;;;5060900;28;20253;-62
2023/03/30 15:27:42;;;;;;;21.75;2.78;;;;;;;;;;5057765;28;20083;-65
2023/03/30 15:31:23;;;;;;;12.63;2.38;;;;;;;;;;5062377;28;20876;-62
2023/03/30 15:35:19;;;;;;;14.35;2.30;;;;;;;;;;5065442;28;20050;-63
2023/03/30 15:39:02;;;;;;;18.13;2.50;;;;;;;;;;4990579;28;20492;-62
2023/03/30 15:42:48;;;;;;;13.18;2.08;;;;;;;;;;4996797;28;20477;-63
2023/03/30 15:46:31;;;;;;;10.13;1.90;;;;;;;;;;5001544;28;20103;-67
2023/03/30 15:49:34;;;;;;;11.73;1.92;;;;;;;;;;4996863;28;20053;-64
2023/03/30 15:53:14;;;;;;;12.35;2.28;;;;;;;;;;4999201;28;20434;-63
2023/03/30 15:57:00;;;;;;;17.48;2.10;;;;;;;;;;5000558;28;20045;-63
2023/03/30 16:00:41;;;;;;;8.68;2.10;;;;;;;;;;5003559;28;20427;-65
2023/03/30 16:04:27;;;;;;;10.80;1.85;;;;;;;;;;4996302;28;20569;-63
2023/03/30 16:08:08;;;;;;;9.15;2.30;;;;;;;;;;5001381;28;20046;-65
2023/03/30 16:11:48;;;;;;;11.77;2.80;;;;;;;;;;5023094;28;20044;-64
2023/03/30 16:15:31;;;;;;;14.30;3.10;;;;;;;;;;5065606;28;20036;-64
2023/03/30 16:19:11;;;;;;;8.85;2.50;;;;;;;;;;5056944;28;20127;-63
2023/03/30 16:22:52;;;;;;;15.45;2.75;;;;;;;;;;5060671;28;20036;-62
2023/03/30 16:26:32;;;;;;;11.95;2.40;;;;;;;;;;5063552;28;20098;-65
2023/03/30 16:30:12;;;;;;;10.10;2.50;;;;;;;;;;5057252;28;20332;-66
2023/03/30 16:33:53;;;;;;;14.02;2.47;;;;;;;;;;5059788;28;20107;-65
2023/03/30 16:37:33;;;;;;;13.43;2.28;;;;;;;;;;5061783;28;20154;-65
2023/03/30 16:40:56;;;;;;;10.70;1.75;;;;;;;;;;5059216;28;20433;-64
2023/03/30 16:44:37;;;;;;;9.25;2.58;;;;;;;;;;5059507;28;20124;-66
2023/03/30 16:48:17;;;;;;;14.50;2.95;;;;;;;;;;5061531;28;20050;-63
2023/03/30 16:51:59;;;;;;;10.48;3.03;;;;;;;;;;5058738;28;20048;-66
2023/03/30 16:55:39;;;;;;;13.10;3.30;;;;;;;;;;5063007;28;20171;-65
2023/03/30 16:59:19;;;;;;;16.33;3.30;;;;;;;;;;5071300;28;20063;-64
2023/03/30 17:02:59;;;;;;;18.65;3.13;;;;;;;;;;5062027;28;20131;-64
2023/03/30 17:06:40;;;;;;;11.02;2.88;;;;;;;;;;5062610;28;20052;-62
2023/03/30 17:10:20;;;;;;;16.27;2.95;;;;;;;;;;5060570;28;20033;-66
2023/03/30 17:14:00;;;;;;;10.65;2.63;;;;;;;;;;5061544;28;20132;-66
2023/03/30 17:17:42;;;;;;;15.90;3.10;;;;;;;;;;5056694;28;20247;-64
2023/03/30 17:21:24;;;;;;;17.92;3.15;;;;;;;;;;5058166;28;20122;-65
2023/03/30 17:25:04;;;;;;;14.75;2.97;;;;;;;;;;5057895;28;20101;-64
2023/03/30 17:28:48;;;;;;;11.43;3.05;;;;;;;;;;5058577;28;20344;-64
2023/03/30 17:32:30;;;;;;;13.68;3.63;;;;;;;;;;5050038;28;20059;-64
2023/03/30 17:36:10;;;;;;;15.68;3.92;;;;;;;;;;5062668;28;20093;-64
2023/03/30 17:39:50;;;;;;;11.70;3.40;;;;;;;;;;5065214;28;20106;-63
2023/03/30 17:43:30;;;;;;;13.10;3.75;;;;;;;;;;5059918;28;20040;-65
2023/03/30 17:47:11;;;;;;;12.07;3.63;;;;;;;;;;5064855;28;20106;-64
2023/03/30 17:50:31;;;;;;;11.75;3.13;;;;;;;;;;5064528;28;20040;-62
2023/03/30 17:54:12;;;;;;;15.80;3.58;;;;;;;;;;5061336;28;20087;-64
2023/03/30 17:57:52;;;;;;;15.20;3.85;;;;;;;;;;5074129;28;20047;-64
2023/03/30 18:01:33;;;;;;;14.23;3.20;;;;;;;;;;5068117;28;20045;-65
2023/03/30 18:05:13;;;;;;;12.55;3.40;;;;;;;;;;5062397;28;20052;-64
2023/03/30 18:08:53;;;;;;;11.75;3.28;;;;;;;;;;5064149;28;20072;-65
2023/03/30 18:12:33;;;;;;;14.18;3.78;;;;;;;;;;5065004;28;20039;-64
2023/03/30 18:16:17;;;;;;;17.98;3.53;;;;;;;;;;5064147;28;20040;-65
2023/03/30 18:19:56;;;;;;;11.43;3.00;;;;;;;;;;5065955;28;20269;-64
2023/03/30 18:23:36;;;;;;;12.32;3.13;;;;;;;;;;5065266;28;20229;-66
2023/03/30 18:27:16;;;;;;;16.05;3.67;;;;;;;;;;5069605;28;20040;-66
2023/03/30 18:30:59;;;;;;;11.07;3.67;;;;;;;;;;5060299;28;20048;-65
2023/03/30 18:34:37;;;;;;;15.00;3.20;;;;;;;;;;5058462;28;20048;-64
2023/03/30 18:38:17;;;;;;;14.57;3.60;;;;;;;;;;5070366;28;20052;-64
2023/03/30 18:41:59;;;;;;;16.02;4.00;;;;;;;;;;5061571;28;20080;-66
2023/03/30 18:45:39;;;;;;;14.15;3.65;;;;;;;;;;5064900;28;20129;-67
2023/03/30 18:49:21;;;;;;;18.67;3.83;;;;;;;;;;5057905;28;20670;-66
2023/03/30 18:53:02;;;;;;;14.18;3.65;;;;;;;;;;5051387;28;20472;-65
2023/03/30 18:56:42;;;;;;;10.65;3.70;;;;;;;;;;5058112;28;20534;-67
2023/03/30 18:59:18;;;;;;;;;;;;;;;;;;5057324;28;20175;-64
2023/03/30 19:01:44;;;;;;;31.98;4.50;;;;;;;;;;5055440;28;20404;-67
2023/03/30 19:04:53;;;;;;;24.13;4.35;;;;;;;;;;5057982;28;20045;-67